sensor_id;sensor_type;location;lat;lon;timestamp;pressure;altitude;pressure_sealevel;temperature;humidity
18201;BME280;9226;47.858;9.594;2023-08-06T00:01:48;94681.78;;;15.88;87.99
18201;BME280;9226;47.858;9.594;2023-08-06T00:04:13;94679.28;;;15.86;88.64
18201;BME280;9226;47.858;9.594;2023-08-06T00:06:39;94678.78;;;15.83;89.33
18201;BME280;9226;47.858;9.594;2023-08-06T00:09:04;94681.09;;;15.86;88.92
18201;BME280;9226;47.858;9.594;2023-08-06T00:11:29;94670.75;;;15.83;90.19
18201;BME280;9226;47.858;9.594;2023-08-06T00:13:55;94668.06;;;15.91;88.97
18201;BME280;9226;47.858;9.594;2023-08-06T00:16:20;94665.38;;;15.91;89.54
18201;BME280;9226;47.858;9.594;2023-08-06T00:18:45;94660.31;;;15.96;89.08
18201;BME280;9226;47.858;9.594;2023-08-06T00:21:11;94657.81;;;15.95;89.26
18201;BME280;9226;47.858;9.594;2023-08-06T00:23:37;94651.69;;;15.86;89.56
18201;BME280;9226;47.858;9.594;2023-08-06T00:26:03;94654.50;;;15.93;88.74
18201;BME280;9226;47.858;9.594;2023-08-06T00:28:28;94656.28;;;16.00;87.97
18201;BME280;9226;47.858;9.594;2023-08-06T00:30:54;94651.94;;;15.99;87.76
18201;BME280;9226;47.858;9.594;2023-08-06T00:33:21;94653.97;;;15.97;87.88
18201;BME280;9226;47.858;9.594;2023-08-06T00:35:46;94645.09;;;15.97;88.28
18201;BME280;9226;47.858;9.594;2023-08-06T00:38:12;94637.25;;;15.95;87.87
18201;BME280;9226;47.858;9.594;2023-08-06T00:40:37;94638.28;;;15.94;88.79
18201;BME280;9226;47.858;9.594;2023-08-06T00:43:03;94630.78;;;15.89;88.79
18201;BME280;9226;47.858;9.594;2023-08-06T00:45:29;94626.59;;;15.87;88.55
18201;BME280;9226;47.858;9.594;2023-08-06T00:47:55;94613.94;;;15.81;89.48
18201;BME280;9226;47.858;9.594;2023-08-06T00:50:21;94626.69;;;15.70;90.21
18201;BME280;9226;47.858;9.594;2023-08-06T00:52:48;94618.63;;;15.79;89.58
18201;BME280;9226;47.858;9.594;2023-08-06T00:55:14;94616.81;;;15.71;89.84
18201;BME280;9226;47.858;9.594;2023-08-06T00:57:40;94616.00;;;15.70;89.68
18201;BME280;9226;47.858;9.594;2023-08-06T01:00:07;94617.16;;;15.68;89.76
18201;BME280;9226;47.858;9.594;2023-08-06T01:02:32;94614.72;;;15.58;90.30
18201;BME280;9226;47.858;9.594;2023-08-06T01:04:58;94617.69;;;15.63;89.33
18201;BME280;9226;47.858;9.594;2023-08-06T01:07:33;94629.38;;;15.70;89.20
18201;BME280;9226;47.858;9.594;2023-08-06T01:15:33;94617.69;;;15.63;88.69
18201;BME280;9226;47.858;9.594;2023-08-06T01:18:00;94622.75;;;15.58;88.46
18201;BME280;9226;47.858;9.594;2023-08-06T01:20:30;94619.25;;;15.58;88.27
18201;BME280;9226;47.858;9.594;2023-08-06T01:22:55;94621.38;;;15.62;87.55
18201;BME280;9226;47.858;9.594;2023-08-06T01:25:21;94621.06;;;15.57;88.33
18201;BME280;9226;47.858;9.594;2023-08-06T01:27:54;94617.75;;;15.55;88.54
18201;BME280;9226;47.858;9.594;2023-08-06T01:30:28;94605.06;;;15.49;89.08
18201;BME280;9226;47.858;9.594;2023-08-06T01:32:58;94621.75;;;15.51;88.56
18201;BME280;9226;47.858;9.594;2023-08-06T01:35:26;94613.44;;;15.46;88.59
18201;BME280;9226;47.858;9.594;2023-08-06T01:37:53;94606.94;;;15.40;89.23
18201;BME280;9226;47.858;9.594;2023-08-06T01:40:18;94609.09;;;15.45;88.26
18201;BME280;9226;47.858;9.594;2023-08-06T01:42:44;94611.28;;;15.41;88.68
18201;BME280;9226;47.858;9.594;2023-08-06T01:45:09;94608.44;;;15.43;88.59
18201;BME280;9226;47.858;9.594;2023-08-06T01:47:36;94607.44;;;15.44;87.85
18201;BME280;9226;47.858;9.594;2023-08-06T01:50:01;94606.59;;;15.43;87.88
18201;BME280;9226;47.858;9.594;2023-08-06T01:52:27;94591.72;;;15.49;87.56
18201;BME280;9226;47.858;9.594;2023-08-06T01:54:53;94592.06;;;15.46;87.56
18201;BME280;9226;47.858;9.594;2023-08-06T01:57:18;94586.41;;;15.41;87.91
18201;BME280;9226;47.858;9.594;2023-08-06T01:59:44;94585.22;;;15.43;87.24
18201;BME280;9226;47.858;9.594;2023-08-06T02:02:09;94587.25;;;15.41;87.54
18201;BME280;9226;47.858;9.594;2023-08-06T02:04:35;94586.88;;;15.44;87.06
18201;BME280;9226;47.858;9.594;2023-08-06T02:07:00;94581.06;;;15.41;86.73
18201;BME280;9226;47.858;9.594;2023-08-06T02:09:26;94577.19;;;15.43;86.63
18201;BME280;9226;47.858;9.594;2023-08-06T02:11:51;94575.72;;;15.41;86.63
18201;BME280;9226;47.858;9.594;2023-08-06T02:14:16;94580.09;;;15.33;86.79
18201;BME280;9226;47.858;9.594;2023-08-06T02:16:42;94580.78;;;15.27;86.65
18201;BME280;9226;47.858;9.594;2023-08-06T02:19:07;94570.44;;;15.32;86.00
18201;BME280;9226;47.858;9.594;2023-08-06T02:21:32;94579.28;;;15.33;85.75
18201;BME280;9226;47.858;9.594;2023-08-06T02:23:58;94571.13;;;15.26;86.35
18201;BME280;9226;47.858;9.594;2023-08-06T02:26:23;94570.09;;;15.27;85.86
18201;BME280;9226;47.858;9.594;2023-08-06T02:28:49;94584.16;;;15.21;86.20
18201;BME280;9226;47.858;9.594;2023-08-06T02:31:14;94574.03;;;15.16;86.33
18201;BME280;9226;47.858;9.594;2023-08-06T02:33:40;94571.88;;;15.12;86.19
18201;BME280;9226;47.858;9.594;2023-08-06T02:36:05;94572.88;;;15.11;86.13
18201;BME280;9226;47.858;9.594;2023-08-06T02:38:31;94576.13;;;15.21;85.72
18201;BME280;9226;47.858;9.594;2023-08-06T02:40:56;94563.50;;;15.15;85.32
18201;BME280;9226;47.858;9.594;2023-08-06T02:43:22;94556.53;;;15.06;86.04
18201;BME280;9226;47.858;9.594;2023-08-06T02:45:47;94551.53;;;15.02;86.31
18201;BME280;9226;47.858;9.594;2023-08-06T02:48:13;94555.19;;;15.01;86.36
18201;BME280;9226;47.858;9.594;2023-08-06T02:50:39;94552.53;;;15.01;86.23
18201;BME280;9226;47.858;9.594;2023-08-06T02:53:06;94552.88;;;14.98;86.44
18201;BME280;9226;47.858;9.594;2023-08-06T02:55:31;94549.50;;;15.05;86.19
18201;BME280;9226;47.858;9.594;2023-08-06T02:57:57;94554.38;;;15.01;86.57
18201;BME280;9226;47.858;9.594;2023-08-06T03:00:22;94541.53;;;14.96;86.56
18201;BME280;9226;47.858;9.594;2023-08-06T03:02:48;94539.22;;;14.93;87.06
18201;BME280;9226;47.858;9.594;2023-08-06T03:05:13;94539.22;;;14.93;86.90
18201;BME280;9226;47.858;9.594;2023-08-06T03:07:39;94532.50;;;14.97;86.89
18201;BME280;9226;47.858;9.594;2023-08-06T03:10:04;94534.19;;;14.98;86.53
18201;BME280;9226;47.858;9.594;2023-08-06T03:12:30;94518.31;;;14.97;86.57
18201;BME280;9226;47.858;9.594;2023-08-06T03:14:55;94529.53;;;14.92;87.03
18201;BME280;9226;47.858;9.594;2023-08-06T03:17:20;94537.38;;;14.94;87.47
18201;BME280;9226;47.858;9.594;2023-08-06T03:19:46;94529.53;;;14.92;87.10
18201;BME280;9226;47.858;9.594;2023-08-06T03:22:11;94526.44;;;14.80;87.72
18201;BME280;9226;47.858;9.594;2023-08-06T03:24:37;94528.88;;;14.90;87.05
18201;BME280;9226;47.858;9.594;2023-08-06T03:27:02;94531.25;;;14.77;87.62
18201;BME280;9226;47.858;9.594;2023-08-06T03:29:27;94524.94;;;14.78;87.41
18201;BME280;9226;47.858;9.594;2023-08-06T03:31:53;94531.56;;;14.90;86.87
18201;BME280;9226;47.858;9.594;2023-08-06T03:34:19;94515.06;;;14.87;87.05
18201;BME280;9226;47.858;9.594;2023-08-06T03:36:45;94516.00;;;14.94;86.11
18201;BME280;9226;47.858;9.594;2023-08-06T03:39:10;94530.72;;;14.90;86.18
18201;BME280;9226;47.858;9.594;2023-08-06T03:41:35;94529.19;;;14.95;86.05
18201;BME280;9226;47.858;9.594;2023-08-06T03:44:02;94523.25;;;14.85;86.10
18201;BME280;9226;47.858;9.594;2023-08-06T03:46:29;94517.50;;;14.96;86.04
18201;BME280;9226;47.858;9.594;2023-08-06T03:48:54;94517.91;;;14.85;86.29
18201;BME280;9226;47.858;9.594;2023-08-06T03:51:20;94513.50;;;14.92;85.67
18201;BME280;9226;47.858;9.594;2023-08-06T03:53:45;94518.53;;;14.87;85.95
18201;BME280;9226;47.858;9.594;2023-08-06T03:56:10;94522.69;;;14.98;85.18
18201;BME280;9226;47.858;9.594;2023-08-06T03:58:36;94516.47;;;14.97;84.50
18201;BME280;9226;47.858;9.594;2023-08-06T04:01:02;94521.47;;;15.00;84.30
18201;BME280;9226;47.858;9.594;2023-08-06T04:03:28;94523.19;;;14.93;84.68
18201;BME280;9226;47.858;9.594;2023-08-06T04:05:54;94522.38;;;14.93;84.45
18201;BME280;9226;47.858;9.594;2023-08-06T04:08:19;94522.00;;;14.96;84.39
18201;BME280;9226;47.858;9.594;2023-08-06T04:10:45;94518.31;;;14.97;84.04
18201;BME280;9226;47.858;9.594;2023-08-06T04:13:10;94519.53;;;14.94;84.20
18201;BME280;9226;47.858;9.594;2023-08-06T04:15:36;94521.00;;;14.97;83.87
18201;BME280;9226;47.858;9.594;2023-08-06T04:18:01;94520.69;;;14.92;84.41
18201;BME280;9226;47.858;9.594;2023-08-06T04:20:26;94517.81;;;15.01;83.61
18201;BME280;9226;47.858;9.594;2023-08-06T04:22:54;94526.91;;;14.84;84.33
18201;BME280;9226;47.858;9.594;2023-08-06T04:25:20;94520.13;;;15.05;83.48
18201;BME280;9226;47.858;9.594;2023-08-06T04:27:49;94526.81;;;15.00;83.46
18201;BME280;9226;47.858;9.594;2023-08-06T04:30:15;94512.75;;;15.07;83.05
18201;BME280;9226;47.858;9.594;2023-08-06T04:32:40;94522.97;;;15.03;83.97
18201;BME280;9226;47.858;9.594;2023-08-06T04:35:06;94518.09;;;15.07;83.63
18201;BME280;9226;47.858;9.594;2023-08-06T04:37:32;94521.13;;;15.04;83.92
18201;BME280;9226;47.858;9.594;2023-08-06T04:39:57;94512.16;;;14.96;83.91
18201;BME280;9226;47.858;9.594;2023-08-06T04:42:22;94521.97;;;15.04;83.38
18201;BME280;9226;47.858;9.594;2023-08-06T04:44:48;94519.50;;;15.02;84.02
18201;BME280;9226;47.858;9.594;2023-08-06T04:47:13;94517.47;;;15.05;84.36
18201;BME280;9226;47.858;9.594;2023-08-06T04:49:38;94533.63;;;15.11;83.16
18201;BME280;9226;47.858;9.594;2023-08-06T04:52:04;94512.59;;;15.08;83.08
18201;BME280;9226;47.858;9.594;2023-08-06T04:54:30;94523.28;;;15.08;83.24
18201;BME280;9226;47.858;9.594;2023-08-06T04:56:55;94530.06;;;15.19;83.17
18201;BME280;9226;47.858;9.594;2023-08-06T04:59:20;94527.75;;;15.16;82.81
18201;BME280;9226;47.858;9.594;2023-08-06T05:01:46;94522.56;;;15.14;82.32
18201;BME280;9226;47.858;9.594;2023-08-06T05:04:11;94532.09;;;15.17;82.63
18201;BME280;9226;47.858;9.594;2023-08-06T05:06:37;94532.41;;;15.22;82.04
18201;BME280;9226;47.858;9.594;2023-08-06T05:09:05;94543.34;;;15.04;82.98
18201;BME280;9226;47.858;9.594;2023-08-06T05:11:31;94536.47;;;15.10;83.19
18201;BME280;9226;47.858;9.594;2023-08-06T05:13:56;94549.81;;;15.10;83.35
18201;BME280;9226;47.858;9.594;2023-08-06T05:16:22;94548.19;;;15.09;83.51
18201;BME280;9226;47.858;9.594;2023-08-06T05:18:47;94538.47;;;15.08;84.18
18201;BME280;9226;47.858;9.594;2023-08-06T05:21:13;94557.00;;;15.09;83.46
18201;BME280;9226;47.858;9.594;2023-08-06T05:23:38;94555.00;;;15.11;83.76
18201;BME280;9226;47.858;9.594;2023-08-06T05:26:03;94562.81;;;15.13;83.83
18201;BME280;9226;47.858;9.594;2023-08-06T05:28:29;94567.19;;;15.14;84.16
18201;BME280;9226;47.858;9.594;2023-08-06T05:30:54;94550.63;;;15.18;83.08
18201;BME280;9226;47.858;9.594;2023-08-06T05:33:19;94563.69;;;15.13;83.63
18201;BME280;9226;47.858;9.594;2023-08-06T05:35:45;94556.84;;;15.11;82.39
18201;BME280;9226;47.858;9.594;2023-08-06T05:38:10;94555.19;;;15.01;84.86
18201;BME280;9226;47.858;9.594;2023-08-06T05:40:36;94541.47;;;15.13;83.93
18201;BME280;9226;47.858;9.594;2023-08-06T05:43:01;94544.81;;;15.07;83.98
18201;BME280;9226;47.858;9.594;2023-08-06T05:45:27;94549.78;;;15.18;83.17
18201;BME280;9226;47.858;9.594;2023-08-06T05:47:52;94554.16;;;15.11;83.25
18201;BME280;9226;47.858;9.594;2023-08-06T05:50:19;94552.53;;;15.01;83.88
18201;BME280;9226;47.858;9.594;2023-08-06T05:52:44;94563.91;;;14.95;84.02
18201;BME280;9226;47.858;9.594;2023-08-06T05:55:10;94569.56;;;15.00;83.98
18201;BME280;9226;47.858;9.594;2023-08-06T05:57:35;94565.72;;;15.03;84.30
18201;BME280;9226;47.858;9.594;2023-08-06T06:00:02;94561.19;;;15.12;84.27
18201;BME280;9226;47.858;9.594;2023-08-06T06:02:27;94569.72;;;15.07;84.92
18201;BME280;9226;47.858;9.594;2023-08-06T06:04:53;94572.22;;;15.09;84.23
18201;BME280;9226;47.858;9.594;2023-08-06T06:07:18;94571.53;;;15.07;84.59
18201;BME280;9226;47.858;9.594;2023-08-06T06:09:43;94577.00;;;15.22;84.23
18201;BME280;9226;47.858;9.594;2023-08-06T06:12:09;94563.13;;;15.26;84.29
18201;BME280;9226;47.858;9.594;2023-08-06T06:14:34;94561.38;;;15.33;82.80
18201;BME280;9226;47.858;9.594;2023-08-06T06:17:00;94559.69;;;15.41;82.48
18201;BME280;9226;47.858;9.594;2023-08-06T06:19:26;94564.28;;;15.55;81.48
18201;BME280;9226;47.858;9.594;2023-08-06T06:21:51;94568.97;;;15.53;81.40
18201;BME280;9226;47.858;9.594;2023-08-06T06:24:17;94565.03;;;15.41;80.39
18201;BME280;9226;47.858;9.594;2023-08-06T06:26:42;94572.88;;;15.65;82.47
18201;BME280;9226;47.858;9.594;2023-08-06T06:29:07;94570.78;;;15.84;80.29
18201;BME280;9226;47.858;9.594;2023-08-06T06:31:33;94573.03;;;15.95;79.28
18201;BME280;9226;47.858;9.594;2023-08-06T06:33:58;94577.31;;;16.04;78.37
18201;BME280;9226;47.858;9.594;2023-08-06T06:36:24;94579.63;;;16.07;78.36
18201;BME280;9226;47.858;9.594;2023-08-06T06:38:49;94581.66;;;16.05;76.56
18201;BME280;9226;47.858;9.594;2023-08-06T06:41:14;94579.72;;;15.99;76.19
18201;BME280;9226;47.858;9.594;2023-08-06T06:43:40;94579.00;;;16.05;77.84
18201;BME280;9226;47.858;9.594;2023-08-06T06:46:05;94590.44;;;16.52;78.92
18201;BME280;9226;47.858;9.594;2023-08-06T06:48:32;94597.78;;;16.73;76.68
18201;BME280;9226;47.858;9.594;2023-08-06T06:50:58;94593.94;;;16.91;75.73
18201;BME280;9226;47.858;9.594;2023-08-06T06:53:24;94599.00;;;17.00;76.02
18201;BME280;9226;47.858;9.594;2023-08-06T06:56:02;94599.22;;;17.50;73.32
18201;BME280;9226;47.858;9.594;2023-08-06T06:58:28;94592.34;;;17.63;72.20
18201;BME280;9226;47.858;9.594;2023-08-06T07:00:53;94593.25;;;17.18;69.88
18201;BME280;9226;47.858;9.594;2023-08-06T07:03:20;94598.66;;;17.04;70.58
18201;BME280;9226;47.858;9.594;2023-08-06T07:05:45;94613.13;;;17.09;71.22
18201;BME280;9226;47.858;9.594;2023-08-06T07:08:11;94604.38;;;17.00;71.32
18201;BME280;9226;47.858;9.594;2023-08-06T07:10:37;94598.31;;;16.83;69.92
18201;BME280;9226;47.858;9.594;2023-08-06T07:13:02;94597.56;;;16.60;69.91
18201;BME280;9226;47.858;9.594;2023-08-06T07:15:27;94607.34;;;16.53;70.54
18201;BME280;9226;47.858;9.594;2023-08-06T07:17:53;94603.09;;;16.20;71.21
18201;BME280;9226;47.858;9.594;2023-08-06T07:20:18;94609.78;;;16.24;71.58
18201;BME280;9226;47.858;9.594;2023-08-06T07:22:44;94611.25;;;16.27;71.78
18201;BME280;9226;47.858;9.594;2023-08-06T07:25:10;94611.75;;;16.07;71.81
18201;BME280;9226;47.858;9.594;2023-08-06T07:27:35;94614.16;;;16.17;72.38
18201;BME280;9226;47.858;9.594;2023-08-06T07:30:00;94612.91;;;16.05;72.99
18201;BME280;9226;47.858;9.594;2023-08-06T07:32:26;94608.06;;;16.08;73.44
18201;BME280;9226;47.858;9.594;2023-08-06T07:34:53;94608.84;;;15.94;74.46
18201;BME280;9226;47.858;9.594;2023-08-06T07:37:22;94618.50;;;15.64;74.73
18201;BME280;9226;47.858;9.594;2023-08-06T07:39:48;94614.97;;;15.71;75.21
18201;BME280;9226;47.858;9.594;2023-08-06T07:42:13;94618.31;;;15.73;75.51
18201;BME280;9226;47.858;9.594;2023-08-06T07:44:39;94636.09;;;15.58;74.46
18201;BME280;9226;47.858;9.594;2023-08-06T07:47:05;94628.72;;;15.37;76.72
18201;BME280;9226;47.858;9.594;2023-08-06T07:49:30;94630.41;;;15.30;77.13
18201;BME280;9226;47.858;9.594;2023-08-06T07:51:56;94638.09;;;15.25;77.53
18201;BME280;9226;47.858;9.594;2023-08-06T07:54:21;94628.75;;;15.20;77.82
18201;BME280;9226;47.858;9.594;2023-08-06T07:56:47;94641.69;;;15.00;78.35
18201;BME280;9226;47.858;9.594;2023-08-06T07:59:12;94644.16;;;15.10;79.12
18201;BME280;9226;47.858;9.594;2023-08-06T08:01:38;94636.22;;;14.86;79.31
18201;BME280;9226;47.858;9.594;2023-08-06T08:04:03;94641.72;;;14.92;79.08
18201;BME280;9226;47.858;9.594;2023-08-06T08:06:29;94647.69;;;15.02;78.36
18201;BME280;9226;47.858;9.594;2023-08-06T08:08:55;94654.06;;;14.93;79.29
18201;BME280;9226;47.858;9.594;2023-08-06T08:11:20;94647.53;;;14.96;79.04
18201;BME280;9226;47.858;9.594;2023-08-06T08:13:45;94648.06;;;14.91;79.60
18201;BME280;9226;47.858;9.594;2023-08-06T08:16:11;94660.59;;;14.82;80.36
18201;BME280;9226;47.858;9.594;2023-08-06T08:18:36;94658.75;;;14.83;80.33
18201;BME280;9226;47.858;9.594;2023-08-06T08:21:02;94661.25;;;14.84;80.78
18201;BME280;9226;47.858;9.594;2023-08-06T08:23:27;94657.09;;;14.82;81.18
18201;BME280;9226;47.858;9.594;2023-08-06T08:25:52;94659.91;;;14.89;80.96
18201;BME280;9226;47.858;9.594;2023-08-06T08:28:18;94661.72;;;15.05;80.43
18201;BME280;9226;47.858;9.594;2023-08-06T08:30:44;94662.88;;;15.02;81.04
18201;BME280;9226;47.858;9.594;2023-08-06T08:33:09;94655.75;;;14.94;80.75
18201;BME280;9226;47.858;9.594;2023-08-06T08:35:36;94658.03;;;15.06;80.86
18201;BME280;9226;47.858;9.594;2023-08-06T08:38:01;94664.69;;;15.10;80.53
18201;BME280;9226;47.858;9.594;2023-08-06T08:40:31;94668.38;;;15.09;80.46
18201;BME280;9226;47.858;9.594;2023-08-06T08:43:00;94666.69;;;15.16;79.99
18201;BME280;9226;47.858;9.594;2023-08-06T08:45:29;94656.72;;;15.01;79.93
18201;BME280;9226;47.858;9.594;2023-08-06T08:47:55;94663.03;;;15.09;80.32
18201;BME280;9226;47.858;9.594;2023-08-06T08:50:21;94661.53;;;15.06;79.90
18201;BME280;9226;47.858;9.594;2023-08-06T08:52:47;94664.03;;;15.08;80.38
18201;BME280;9226;47.858;9.594;2023-08-06T08:55:15;94672.72;;;15.01;80.43
18201;BME280;9226;47.858;9.594;2023-08-06T08:57:40;94672.59;;;14.95;81.25
18201;BME280;9226;47.858;9.594;2023-08-06T09:00:06;94676.06;;;15.04;80.04
18201;BME280;9226;47.858;9.594;2023-08-06T09:02:33;94675.88;;;15.05;79.39
18201;BME280;9226;47.858;9.594;2023-08-06T09:05:00;94680.91;;;15.00;79.47
18201;BME280;9226;47.858;9.594;2023-08-06T09:07:34;94695.47;;;14.81;81.03
18201;BME280;9226;47.858;9.594;2023-08-06T09:10:02;94686.81;;;14.79;82.18
18201;BME280;9226;47.858;9.594;2023-08-06T09:12:29;94691.28;;;14.95;80.81
18201;BME280;9226;47.858;9.594;2023-08-06T09:14:55;94695.97;;;14.93;81.06
18201;BME280;9226;47.858;9.594;2023-08-06T09:17:20;94706.31;;;14.88;81.08
18201;BME280;9226;47.858;9.594;2023-08-06T09:19:46;94713.31;;;14.97;80.81
18201;BME280;9226;47.858;9.594;2023-08-06T09:22:15;94710.97;;;14.94;80.45
18201;BME280;9226;47.858;9.594;2023-08-06T09:24:41;94705.31;;;14.89;80.82
18201;BME280;9226;47.858;9.594;2023-08-06T09:27:14;94702.47;;;14.90;80.54
18201;BME280;9226;47.858;9.594;2023-08-06T09:29:41;94700.16;;;14.79;82.07
18201;BME280;9226;47.858;9.594;2023-08-06T09:32:07;94700.34;;;14.77;81.48
18201;BME280;9226;47.858;9.594;2023-08-06T09:34:32;94701.81;;;14.80;82.19
18201;BME280;9226;47.858;9.594;2023-08-06T09:36:57;94696.97;;;14.75;82.11
18201;BME280;9226;47.858;9.594;2023-08-06T09:39:30;94704.16;;;14.75;81.80
18201;BME280;9226;47.858;9.594;2023-08-06T09:42:00;94695.50;;;14.73;84.21
18201;BME280;9226;47.858;9.594;2023-08-06T09:44:27;94689.97;;;14.74;82.40
18201;BME280;9226;47.858;9.594;2023-08-06T09:46:58;94708.13;;;14.95;82.27
18201;BME280;9226;47.858;9.594;2023-08-06T09:49:28;94711.66;;;14.79;84.37
18201;BME280;9226;47.858;9.594;2023-08-06T09:52:05;94715.47;;;15.01;82.60
18201;BME280;9226;47.858;9.594;2023-08-06T09:54:31;94716.16;;;14.95;83.58
18201;BME280;9226;47.858;9.594;2023-08-06T09:56:57;94716.97;;;15.12;83.99
18201;BME280;9226;47.858;9.594;2023-08-06T09:59:24;94712.13;;;15.08;83.58
18201;BME280;9226;47.858;9.594;2023-08-06T10:01:50;94722.78;;;15.16;82.92
18201;BME280;9226;47.858;9.594;2023-08-06T10:04:15;94719.78;;;15.19;82.33
18201;BME280;9226;47.858;9.594;2023-08-06T10:06:46;94725.44;;;15.32;82.41
18201;BME280;9226;47.858;9.594;2023-08-06T10:09:12;94730.09;;;15.30;82.30
18201;BME280;9226;47.858;9.594;2023-08-06T10:11:39;94725.53;;;15.47;81.85
18201;BME280;9226;47.858;9.594;2023-08-06T10:14:11;94705.22;;;15.78;83.41
18201;BME280;9226;47.858;9.594;2023-08-06T10:16:39;94707.19;;;16.15;81.64
18201;BME280;9226;47.858;9.594;2023-08-06T10:19:07;94704.88;;;16.12;80.62
18201;BME280;9226;47.858;9.594;2023-08-06T10:21:34;94710.88;;;16.37;81.02
18201;BME280;9226;47.858;9.594;2023-08-06T10:23:59;94699.31;;;16.60;79.19
18201;BME280;9226;47.858;9.594;2023-08-06T10:26:29;94701.38;;;16.73;77.78
18201;BME280;9226;47.858;9.594;2023-08-06T10:28:55;94701.97;;;16.83;77.24
18201;BME280;9226;47.858;9.594;2023-08-06T10:31:54;94694.13;;;16.81;74.35
18201;BME280;9226;47.858;9.594;2023-08-06T10:34:20;94704.25;;;16.94;75.55
18201;BME280;9226;47.858;9.594;2023-08-06T10:36:46;94701.78;;;16.85;76.32
18201;BME280;9226;47.858;9.594;2023-08-06T10:39:15;94695.56;;;16.69;75.96
18201;BME280;9226;47.858;9.594;2023-08-06T10:41:42;94695.03;;;16.97;75.98
18201;BME280;9226;47.858;9.594;2023-08-06T10:44:10;94695.75;;;16.91;75.90
18201;BME280;9226;47.858;9.594;2023-08-06T10:46:36;94702.63;;;16.85;75.73
18201;BME280;9226;47.858;9.594;2023-08-06T10:49:03;94706.81;;;16.88;74.69
18201;BME280;9226;47.858;9.594;2023-08-06T10:51:28;94703.97;;;16.66;75.32
18201;BME280;9226;47.858;9.594;2023-08-06T10:53:54;94712.44;;;16.55;73.88
18201;BME280;9226;47.858;9.594;2023-08-06T10:56:21;94704.19;;;16.79;75.54
18201;BME280;9226;47.858;9.594;2023-08-06T10:58:53;94716.25;;;16.60;75.61
18201;BME280;9226;47.858;9.594;2023-08-06T11:01:18;94711.09;;;16.51;75.36
18201;BME280;9226;47.858;9.594;2023-08-06T11:03:45;94716.06;;;16.62;75.46
18201;BME280;9226;47.858;9.594;2023-08-06T11:06:16;94725.34;;;16.51;74.07
18201;BME280;9226;47.858;9.594;2023-08-06T11:08:49;94728.34;;;16.71;73.29
18201;BME280;9226;47.858;9.594;2023-08-06T11:11:15;94725.75;;;16.63;73.65
18201;BME280;9226;47.858;9.594;2023-08-06T11:13:45;94737.06;;;16.73;74.35
18201;BME280;9226;47.858;9.594;2023-08-06T11:16:13;94734.25;;;16.67;73.73
18201;BME280;9226;47.858;9.594;2023-08-06T11:18:39;94731.28;;;16.61;72.83
18201;BME280;9226;47.858;9.594;2023-08-06T11:21:05;94735.03;;;16.75;74.19
18201;BME280;9226;47.858;9.594;2023-08-06T11:23:30;94727.13;;;16.59;72.67
18201;BME280;9226;47.858;9.594;2023-08-06T11:25:57;94727.50;;;16.56;73.28
18201;BME280;9226;47.858;9.594;2023-08-06T11:28:23;94734.50;;;16.57;72.91
18201;BME280;9226;47.858;9.594;2023-08-06T11:30:49;94741.34;;;16.59;72.83
18201;BME280;9226;47.858;9.594;2023-08-06T11:33:23;94736.56;;;16.70;73.02
18201;BME280;9226;47.858;9.594;2023-08-06T11:35:53;94738.13;;;16.64;72.83
18201;BME280;9226;47.858;9.594;2023-08-06T11:38:20;94736.63;;;16.61;73.23
18201;BME280;9226;47.858;9.594;2023-08-06T11:40:45;94732.06;;;16.70;72.97
18201;BME280;9226;47.858;9.594;2023-08-06T11:43:14;94733.94;;;16.85;71.70
18201;BME280;9226;47.858;9.594;2023-08-06T11:45:40;94737.78;;;16.67;71.77
18201;BME280;9226;47.858;9.594;2023-08-06T11:48:06;94736.69;;;16.76;70.88
18201;BME280;9226;47.858;9.594;2023-08-06T11:50:36;94731.09;;;16.63;71.62
18201;BME280;9226;47.858;9.594;2023-08-06T11:53:03;94741.91;;;16.70;71.54
18201;BME280;9226;47.858;9.594;2023-08-06T11:55:28;94725.75;;;16.63;71.26
18201;BME280;9226;47.858;9.594;2023-08-06T11:57:54;94722.72;;;16.66;71.31
18201;BME280;9226;47.858;9.594;2023-08-06T12:00:23;94732.94;;;16.86;71.24
18201;BME280;9226;47.858;9.594;2023-08-06T12:02:49;94728.53;;;16.70;70.80
18201;BME280;9226;47.858;9.594;2023-08-06T12:05:18;94743.66;;;16.86;71.19
18201;BME280;9226;47.858;9.594;2023-08-06T12:07:48;94754.34;;;16.94;70.50
18201;BME280;9226;47.858;9.594;2023-08-06T12:10:15;94752.41;;;16.79;69.65
18201;BME280;9226;47.858;9.594;2023-08-06T12:12:40;94768.28;;;17.04;69.69
18201;BME280;9226;47.858;9.594;2023-08-06T12:15:07;94754.06;;;17.04;69.25
18201;BME280;9226;47.858;9.594;2023-08-06T12:17:33;94765.44;;;17.06;68.99
18201;BME280;9226;47.858;9.594;2023-08-06T12:19:58;94761.66;;;17.00;68.26
18201;BME280;9226;47.858;9.594;2023-08-06T12:22:24;94758.94;;;16.77;69.07
18201;BME280;9226;47.858;9.594;2023-08-06T12:24:50;94764.78;;;16.80;69.22
18201;BME280;9226;47.858;9.594;2023-08-06T12:27:15;94752.25;;;16.58;69.18
18201;BME280;9226;47.858;9.594;2023-08-06T12:29:45;94746.94;;;16.50;68.97
18201;BME280;9226;47.858;9.594;2023-08-06T12:32:12;94760.00;;;16.44;69.37
18201;BME280;9226;47.858;9.594;2023-08-06T12:34:41;94755.28;;;16.55;69.54
18201;BME280;9226;47.858;9.594;2023-08-06T12:37:08;94769.31;;;16.57;69.76
18201;BME280;9226;47.858;9.594;2023-08-06T12:39:34;94765.97;;;16.55;68.73
18201;BME280;9226;47.858;9.594;2023-08-06T12:42:01;94770.88;;;16.51;69.39
18201;BME280;9226;47.858;9.594;2023-08-06T12:44:26;94768.53;;;16.48;70.00
18201;BME280;9226;47.858;9.594;2023-08-06T12:46:53;94781.31;;;16.38;70.68
18201;BME280;9226;47.858;9.594;2023-08-06T12:49:19;94779.88;;;16.27;71.01
18201;BME280;9226;47.858;9.594;2023-08-06T12:51:49;94779.78;;;16.43;70.45
18201;BME280;9226;47.858;9.594;2023-08-06T12:54:16;94778.16;;;16.34;70.96
18201;BME280;9226;47.858;9.594;2023-08-06T12:56:42;94784.44;;;16.50;70.95
18201;BME280;9226;47.858;9.594;2023-08-06T12:59:07;94790.78;;;16.49;70.62
18201;BME280;9226;47.858;9.594;2023-08-06T13:01:33;94794.09;;;16.59;70.71
18201;BME280;9226;47.858;9.594;2023-08-06T13:03:59;94785.50;;;16.63;69.81
18201;BME280;9226;47.858;9.594;2023-08-06T13:06:25;94789.97;;;16.48;70.84
18201;BME280;9226;47.858;9.594;2023-08-06T13:08:50;94794.06;;;16.36;71.89
18201;BME280;9226;47.858;9.594;2023-08-06T13:11:16;94806.16;;;16.23;72.26